Time;durP1;ratioP1;P1;durP2;ratioP2;P2;SDS_P1;SDS_P2;PMS_P1;PMS_P2;Temp;Humidity;BMP_temperature;BMP_pressure;BME280_temperature;BME280_humidity;BME280_pressure;Samples;Min_cycle;Max_cycle;Signal;HPM_P1;HPM_P2
2022/05/28 00:00:28;;;;;;;9.90;2.17;;;;;;;-145.18;100.00;60484.78;5033158;28;20017;-69
2022/05/28 00:02:54;;;;;;;10.57;1.70;;;;;;;-145.18;100.00;60484.78;5033041;28;20021;-68
2022/05/28 00:05:19;;;;;;;9.07;1.80;;;;;;;-145.18;100.00;60484.78;5033572;28;20028;-69
2022/05/28 00:07:45;;;;;;;8.80;1.50;;;;;;;-145.18;100.00;60484.78;5038582;28;20048;-70
2022/05/28 00:10:14;;;;;;;7.40;1.80;;;;;;;-145.18;100.00;60484.78;5044344;28;20481;-69
2022/05/28 00:12:40;;;;;;;9.00;1.70;;;;;;;-145.18;100.00;60484.78;5032144;28;20039;-69
2022/05/28 00:15:06;;;;;;;11.60;1.80;;;;;;;-145.18;100.00;60484.78;5044241;28;20033;-68
2022/05/28 00:17:33;;;;;;;8.70;1.40;;;;;;;-145.18;100.00;60484.78;5035804;28;20025;-69
2022/05/28 00:19:59;;;;;;;10.03;1.47;;;;;;;-145.18;100.00;60484.78;5042568;28;20032;-68
2022/05/28 00:22:24;;;;;;;4.80;1.20;;;;;;;-145.18;100.00;60484.78;5037930;28;20032;-69
2022/05/28 00:24:50;;;;;;;5.97;1.00;;;;;;;-145.18;100.00;60484.78;5032093;28;20033;-69
2022/05/28 00:27:15;;;;;;;5.50;1.23;;;;;;;-145.18;100.00;60484.78;5033053;28;20027;-69
2022/05/28 00:29:41;;;;;;;7.03;1.40;;;;;;;-145.18;100.00;60484.78;5030695;28;20041;-68
2022/05/28 00:32:06;;;;;;;7.83;1.80;;;;;;;-145.18;100.00;60484.78;5031878;28;20057;-69
2022/05/28 00:34:32;;;;;;;9.30;1.87;;;;;;;-145.18;100.00;60484.78;5049666;28;20025;-69
2022/05/28 00:36:57;;;;;;;10.23;1.70;;;;;;;-145.18;100.00;60484.78;5038108;28;20405;-69
2022/05/28 00:39:24;;;;;;;9.70;2.13;;;;;;;-145.18;100.00;60484.78;5039416;28;20324;-69
2022/05/28 00:41:49;;;;;;;7.83;1.60;;;;;;;-145.18;100.00;60484.78;5032199;28;20079;-69
2022/05/28 00:44:15;;;;;;;10.90;1.77;;;;;;;-145.18;100.00;60484.78;5031840;28;20021;-69
2022/05/28 00:46:42;;;;;;;8.60;1.90;;;;;;;-145.18;100.00;60484.78;5035640;28;20024;-69
2022/05/28 00:49:12;;;;;;;12.23;2.40;;;;;;;-145.18;100.00;60484.78;5042098;28;20432;-69
2022/05/28 00:51:47;;;;;;;9.90;1.67;;;;;;;-145.18;100.00;60484.78;5039665;28;20017;-69
2022/05/28 00:54:13;;;;;;;11.33;2.13;;;;;;;-145.18;100.00;60484.78;5040177;28;20025;-69
2022/05/28 00:56:39;;;;;;;13.57;2.53;;;;;;;-145.18;100.00;60484.78;5033046;28;20079;-69
2022/05/28 00:59:04;;;;;;;10.17;2.33;;;;;;;-145.18;100.00;60484.78;5050015;28;20090;-69
2022/05/28 01:01:33;;;;;;;8.00;1.70;;;;;;;-145.18;100.00;60484.78;5031927;28;20047;-70
2022/05/28 01:04:36;;;;;;;11.13;2.10;;;;;;;-145.18;100.00;60484.78;5033126;28;20029;-69
2022/05/28 01:07:11;;;;;;;9.27;2.00;;;;;;;-145.18;100.00;60484.78;5044057;28;20521;-69
2022/05/28 01:10:01;;;;;;;11.67;2.33;;;;;;;-145.18;100.00;60484.78;5031464;28;20029;-69
2022/05/28 01:13:06;;;;;;;10.43;2.10;;;;;;;-145.18;100.00;60484.78;5044467;28;20477;-69
2022/05/28 01:15:38;;;;;;;8.43;2.00;;;;;;;-145.18;100.00;60484.78;5031156;28;20520;-69
2022/05/28 01:18:20;;;;;;;12.05;1.80;;;;;;;-145.18;100.00;60484.78;5033875;28;20171;-69
2022/05/28 01:20:51;;;;;;;11.63;2.00;;;;;;;-145.18;100.00;60484.78;5034026;28;20121;-69
2022/05/28 01:23:22;;;;;;;12.20;1.93;;;;;;;-145.18;100.00;60484.78;5032141;28;20025;-69
2022/05/28 01:26:21;;;;;;;15.65;2.30;;;;;;;-145.18;100.00;60484.78;5045335;28;20025;-69
2022/05/28 01:28:54;;;;;;;10.27;1.83;;;;;;;-145.18;100.00;60484.78;5039290;28;20037;-69
2022/05/28 01:31:22;;;;;;;10.73;1.97;;;;;;;-145.18;100.00;60484.78;5036801;28;20037;-69
2022/05/28 01:33:48;;;;;;;14.33;2.13;;;;;;;-145.18;100.00;60484.78;5045094;28;20028;-69
2022/05/28 01:36:16;;;;;;;12.27;2.27;;;;;;;-145.18;100.00;60484.78;5033314;28;20025;-69
2022/05/28 01:38:44;;;;;;;14.50;2.77;;;;;;;-145.18;100.00;60484.78;5030236;28;20033;-69
2022/05/28 01:41:11;;;;;;;10.07;2.20;;;;;;;-145.18;100.00;60484.78;5030678;28;20068;-69
2022/05/28 01:43:40;;;;;;;13.73;2.70;;;;;;;-145.18;100.00;60484.78;5030288;28;20029;-69
2022/05/28 01:46:06;;;;;;;14.47;2.30;;;;;;;-145.18;100.00;60484.78;5030410;28;20025;-69
2022/05/28 01:48:33;;;;;;;8.93;2.00;;;;;;;-145.18;100.00;60484.78;5035893;28;20025;-69
2022/05/28 01:51:01;;;;;;;14.43;2.30;;;;;;;-145.18;100.00;60484.78;5036575;28;20083;-69
2022/05/28 01:56:14;;;;;;;13.57;2.80;;;;;;;-145.18;100.00;60484.78;5035473;28;20036;-69
2022/05/28 01:58:40;;;;;;;14.13;2.47;;;;;;;-145.18;100.00;60484.78;5034257;28;20029;-69
2022/05/28 02:01:08;;;;;;;12.57;1.90;;;;;;;-145.18;100.00;60484.78;5030201;28;20044;-70
2022/05/28 02:03:37;;;;;;;14.13;2.10;;;;;;;-145.18;100.00;60484.78;5036122;28;20452;-70
2022/05/28 02:06:02;;;;;;;11.87;1.90;;;;;;;-145.18;100.00;60484.78;5047170;28;20052;-69
2022/05/28 02:08:32;;;;;;;11.13;2.37;;;;;;;-145.18;100.00;60484.78;5040252;28;20488;-70
2022/05/28 02:11:30;;;;;;;14.50;2.47;;;;;;;-145.18;100.00;60484.78;5047858;28;20736;-69
2022/05/28 02:14:07;;;;;;;11.50;2.40;;;;;;;-145.18;100.00;60484.78;5033670;28;20032;-69
2022/05/28 02:16:46;;;;;;;12.37;2.10;;;;;;;-145.18;100.00;60484.78;5032429;28;20099;-69
2022/05/28 02:19:25;;;;;;;17.57;2.40;;;;;;;-145.18;100.00;60484.78;5044923;28;20481;-69
2022/05/28 02:22:10;;;;;;;10.13;1.80;;;;;;;-145.18;100.00;60484.78;5039375;28;20074;-69
2022/05/28 02:24:41;;;;;;;11.00;2.00;;;;;;;-145.18;100.00;60484.78;5042604;28;20044;-69
2022/05/28 02:27:16;;;;;;;8.43;1.90;;;;;;;-145.18;100.00;60484.78;5033497;28;20494;-69
2022/05/28 02:29:42;;;;;;;10.20;2.03;;;;;;;-145.18;100.00;60484.78;5042806;28;20037;-69
2022/05/28 02:32:18;;;;;;;13.20;2.50;;;;;;;-145.18;100.00;60484.78;5029222;28;20386;-69
2022/05/28 02:34:46;;;;;;;16.20;2.43;;;;;;;-145.18;100.00;60484.78;5046471;28;20453;-69
2022/05/28 02:37:16;;;;;;;14.27;2.57;;;;;;;-145.18;100.00;60484.78;5041967;28;20032;-69
2022/05/28 02:39:42;;;;;;;11.00;2.63;;;;;;;-145.18;100.00;60484.78;5035263;28;20021;-69
2022/05/28 02:42:07;;;;;;;14.93;2.10;;;;;;;-145.18;100.00;60484.78;5028867;28;20021;-69
2022/05/28 02:44:33;;;;;;;14.50;2.23;;;;;;;-145.18;100.00;60484.78;5020907;28;20072;-69
2022/05/28 02:46:59;;;;;;;15.43;2.47;;;;;;;-145.18;100.00;60484.78;5016982;28;20032;-69
2022/05/28 02:49:25;;;;;;;11.50;2.03;;;;;;;-145.18;100.00;60484.78;5025296;28;20475;-69
2022/05/28 02:51:52;;;;;;;10.67;2.03;;;;;;;-145.18;100.00;60484.78;5024038;28;20033;-69
2022/05/28 02:54:18;;;;;;;11.73;1.70;;;;;;;-145.18;100.00;60484.78;5025067;28;20561;-70
2022/05/28 02:56:43;;;;;;;9.40;1.70;;;;;;;-145.18;100.00;60484.78;5024273;28;20049;-69
2022/05/28 02:59:08;;;;;;;12.43;1.93;;;;;;;-145.18;100.00;60484.78;5029760;28;20526;-70
2022/05/28 03:01:34;;;;;;;11.07;1.90;;;;;;;-145.18;100.00;60484.78;5035478;28;20036;-69
2022/05/28 03:04:00;;;;;;;12.47;1.80;;;;;;;-145.18;100.00;60484.78;5029222;28;20111;-70
2022/05/28 03:06:26;;;;;;;10.50;1.87;;;;;;;-145.18;100.00;60484.78;5033492;28;20044;-70
2022/05/28 03:08:52;;;;;;;10.57;2.40;;;;;;;-145.18;100.00;60484.78;5031742;28;20032;-69
2022/05/28 03:11:17;;;;;;;11.00;1.77;;;;;;;-145.18;100.00;60484.78;5027083;28;20069;-69
2022/05/28 03:13:43;;;;;;;16.47;2.40;;;;;;;-145.18;100.00;60484.78;5028334;28;20031;-69
2022/05/28 03:16:08;;;;;;;14.40;2.20;;;;;;;-145.18;100.00;60484.78;5027655;28;20018;-69
2022/05/28 03:18:34;;;;;;;12.53;2.10;;;;;;;-145.18;100.00;60484.78;5026425;28;20358;-70
2022/05/28 03:21:00;;;;;;;13.47;1.93;;;;;;;-145.18;100.00;60484.78;5026987;28;20036;-69
2022/05/28 03:23:25;;;;;;;9.30;2.40;;;;;;;-145.18;100.00;60484.78;5027651;28;20053;-69
2022/05/28 03:25:50;;;;;;;11.70;1.87;;;;;;;-145.18;100.00;60484.78;5023742;28;20032;-69
2022/05/28 03:28:16;;;;;;;15.40;2.07;;;;;;;-145.18;100.00;60484.78;5020901;28;20025;-69
2022/05/28 03:30:42;;;;;;;12.83;2.27;;;;;;;-145.18;100.00;60484.78;5022425;28;20033;-70
2022/05/28 03:33:07;;;;;;;10.80;2.27;;;;;;;-145.18;100.00;60484.78;5023681;28;20499;-69
2022/05/28 03:35:33;;;;;;;13.50;1.87;;;;;;;-145.18;100.00;60484.78;5023039;28;20032;-70
2022/05/28 03:37:59;;;;;;;11.10;2.00;;;;;;;-145.18;100.00;60484.78;5022802;28;20643;-69
2022/05/28 03:40:24;;;;;;;11.10;2.10;;;;;;;-145.18;100.00;60484.78;5026631;28;20036;-69
2022/05/28 03:42:50;;;;;;;9.67;2.00;;;;;;;-145.18;100.00;60484.78;5024365;28;20045;-69
2022/05/28 03:45:15;;;;;;;11.57;2.03;;;;;;;-145.18;100.00;60484.78;5024512;28;21871;-69
2022/05/28 03:47:41;;;;;;;13.57;2.00;;;;;;;-145.18;100.00;60484.78;5029643;28;20037;-69
2022/05/28 03:50:07;;;;;;;14.07;2.17;;;;;;;-145.18;100.00;60484.78;5026513;28;20148;-69
2022/05/28 03:52:33;;;;;;;11.87;1.80;;;;;;;-145.18;100.00;60484.78;5027314;28;20473;-69
2022/05/28 03:54:59;;;;;;;15.40;2.10;;;;;;;-145.18;100.00;60484.78;5025580;28;20095;-70
2022/05/28 03:57:26;;;;;;;9.00;1.83;;;;;;;-145.18;100.00;60484.78;5022533;28;20033;-70
2022/05/28 03:59:52;;;;;;;9.87;1.87;;;;;;;-145.18;100.00;60484.78;5022972;28;20061;-69
2022/05/28 04:02:18;;;;;;;10.63;1.60;;;;;;;-145.18;100.00;60484.78;5022175;28;20543;-69
2022/05/28 04:04:44;;;;;;;11.77;1.90;;;;;;;-145.18;100.00;60484.78;5023670;28;20036;-69
2022/05/28 04:07:11;;;;;;;13.03;1.80;;;;;;;-145.18;100.00;60484.78;5023601;28;20026;-69
2022/05/28 04:09:37;;;;;;;11.33;2.00;;;;;;;-145.18;100.00;60484.78;5021287;28;20108;-69
2022/05/28 04:12:03;;;;;;;9.20;1.70;;;;;;;-145.18;100.00;60484.78;5025165;28;20037;-70
2022/05/28 04:14:28;;;;;;;9.57;1.70;;;;;;;-145.18;100.00;60484.78;5022084;28;20266;-70
2022/05/28 04:16:54;;;;;;;12.60;2.10;;;;;;;-145.18;100.00;60484.78;5023207;28;20112;-69
2022/05/28 04:19:19;;;;;;;14.73;1.93;;;;;;;-145.18;100.00;60484.78;5023942;28;20065;-70
2022/05/28 04:21:45;;;;;;;8.90;1.90;;;;;;;-145.18;100.00;60484.78;5023293;28;20037;-69
2022/05/28 04:24:11;;;;;;;15.53;3.03;;;;;;;-145.18;100.00;60484.78;5024788;28;20041;-69
2022/05/28 04:26:36;;;;;;;16.27;3.27;;;;;;;-145.18;100.00;60484.78;5023751;28;20156;-70
2022/05/28 04:29:02;;;;;;;10.43;2.00;;;;;;;-145.18;100.00;60484.78;5029782;28;20103;-70
2022/05/28 04:31:28;;;;;;;12.90;2.23;;;;;;;-145.18;100.00;60484.78;5023896;28;20128;-70
2022/05/28 04:33:53;;;;;;;12.37;2.00;;;;;;;-145.18;100.00;60484.78;5025597;28;20033;-69
2022/05/28 04:36:19;;;;;;;12.10;1.93;;;;;;;-145.18;100.00;60484.78;5027936;28;20478;-70
2022/05/28 04:38:44;;;;;;;10.83;2.27;;;;;;;-145.18;100.00;60484.78;5027137;28;20778;-69
2022/05/28 04:41:09;;;;;;;10.53;1.90;;;;;;;-145.18;100.00;60484.78;5043201;28;20036;-70
2022/05/28 04:43:35;;;;;;;12.00;2.33;;;;;;;-145.18;100.00;60484.78;5034027;28;20520;-70
2022/05/28 04:46:00;;;;;;;14.57;2.10;;;;;;;-145.18;100.00;60484.78;5025664;28;20040;-69
2022/05/28 04:48:26;;;;;;;14.10;2.67;;;;;;;-145.18;100.00;60484.78;5029324;28;20025;-70
2022/05/28 04:50:52;;;;;;;14.30;2.00;;;;;;;-145.18;100.00;60484.78;5035194;28;20033;-70
2022/05/28 04:53:17;;;;;;;10.97;2.10;;;;;;;-145.18;100.00;60484.78;5035889;28;20070;-70
2022/05/28 04:55:44;;;;;;;9.57;1.67;;;;;;;-145.18;100.00;60484.78;5031842;28;20029;-70
2022/05/28 04:58:11;;;;;;;11.97;1.90;;;;;;;-145.18;100.00;60484.78;5030304;28;20118;-70
2022/05/28 05:00:36;;;;;;;14.37;2.00;;;;;;;-145.18;100.00;60484.78;5018932;28;20029;-70
2022/05/28 05:03:01;;;;;;;12.73;1.97;;;;;;;-145.18;100.00;60484.78;5031029;28;20040;-69
2022/05/28 05:05:27;;;;;;;10.97;2.03;;;;;;;-145.18;100.00;60484.78;5020522;28;20033;-69
2022/05/28 05:07:52;;;;;;;12.30;2.10;;;;;;;-145.18;100.00;60484.78;5019534;28;20040;-70
2022/05/28 05:10:18;;;;;;;13.97;2.17;;;;;;;-145.18;100.00;60484.78;5027075;28;20035;-70
2022/05/28 05:12:43;;;;;;;12.50;2.13;;;;;;;-145.18;100.00;60484.78;5025470;28;20417;-70
2022/05/28 05:15:09;;;;;;;8.43;1.50;;;;;;;-145.18;100.00;60484.78;5023689;28;20036;-71
2022/05/28 05:17:34;;;;;;;7.50;1.53;;;;;;;-145.18;100.00;60484.78;5022988;28;20037;-71
2022/05/28 05:20:00;;;;;;;5.87;1.60;;;;;;;-145.18;100.00;60484.78;5030088;28;20036;-71
2022/05/28 05:22:25;;;;;;;8.37;1.80;;;;;;;-145.18;100.00;60484.78;5029436;28;20040;-72
2022/05/28 05:24:52;;;;;;;10.90;1.90;;;;;;;-145.18;100.00;60484.78;5032443;28;20032;-71
2022/05/28 05:27:17;;;;;;;10.03;1.80;;;;;;;-145.18;100.00;60484.78;5024403;28;20030;-71
2022/05/28 05:29:42;;;;;;;11.87;2.90;;;;;;;-145.18;100.00;60484.78;5027805;28;20394;-71
2022/05/28 05:32:08;;;;;;;10.37;2.13;;;;;;;-145.18;100.00;60484.78;5021325;28;20147;-72
2022/05/28 05:34:33;;;;;;;10.23;1.67;;;;;;;-145.18;100.00;60484.78;5025729;28;20049;-71
2022/05/28 05:36:59;;;;;;;8.05;1.77;;;;;;;-145.18;100.00;60484.78;5022514;28;20116;-71
2022/05/28 05:39:24;;;;;;;11.53;1.53;;;;;;;-145.18;100.00;60484.78;5022338;28;20144;-72
2022/05/28 05:41:49;;;;;;;11.37;2.10;;;;;;;-145.18;100.00;60484.78;5020909;28;20075;-70
2022/05/28 05:44:16;;;;;;;13.80;2.07;;;;;;;-145.18;100.00;60484.78;5025159;28;20045;-70
2022/05/28 05:46:43;;;;;;;12.47;2.00;;;;;;;-145.18;100.00;60484.78;5023746;28;20021;-69
2022/05/28 05:49:10;;;;;;;11.90;1.97;;;;;;;-145.18;100.00;60484.78;5030478;28;20072;-69
2022/05/28 05:51:46;;;;;;;9.67;1.63;;;;;;;-145.18;100.00;60484.78;5019964;28;20033;-70
2022/05/28 05:54:13;;;;;;;17.67;1.97;;;;;;;-145.18;100.00;60484.78;5021832;28;20520;-71
2022/05/28 05:56:38;;;;;;;12.50;2.10;;;;;;;-145.18;100.00;60484.78;5030674;28;20461;-70
2022/05/28 05:59:04;;;;;;;7.83;1.53;;;;;;;-145.18;100.00;60484.78;5022490;28;20091;-70
2022/05/28 06:01:29;;;;;;;11.67;1.80;;;;;;;-145.18;100.00;60484.78;5022254;28;20052;-70
2022/05/28 06:03:55;;;;;;;7.70;1.70;;;;;;;-145.18;100.00;60484.78;5023754;28;20047;-70
2022/05/28 06:06:21;;;;;;;9.10;1.83;;;;;;;-145.18;100.00;60484.78;5021536;28;20035;-69
2022/05/28 06:08:47;;;;;;;11.80;2.77;;;;;;;-145.18;100.00;60484.78;5021747;28;20071;-70
2022/05/28 06:11:13;;;;;;;11.97;2.10;;;;;;;-145.18;100.00;60484.78;5025204;28;20052;-69
2022/05/28 06:13:38;;;;;;;12.33;2.23;;;;;;;-145.18;100.00;60484.78;5021025;28;20033;-69
2022/05/28 06:16:04;;;;;;;8.93;1.70;;;;;;;-145.18;100.00;60484.78;5025559;28;20072;-70
2022/05/28 06:18:31;;;;;;;14.27;2.40;;;;;;;-145.18;100.00;60484.78;5041558;28;20401;-70
2022/05/28 06:20:58;;;;;;;15.47;2.00;;;;;;;-145.18;100.00;60484.78;5017299;28;20421;-69
2022/05/28 06:23:24;;;;;;;9.10;2.10;;;;;;;-145.18;100.00;60484.78;5024426;28;20029;-69
2022/05/28 06:25:49;;;;;;;11.80;2.00;;;;;;;-145.18;100.00;60484.78;5020939;28;20025;-68
2022/05/28 06:28:14;;;;;;;12.93;2.20;;;;;;;-145.18;100.00;60484.78;5020355;28;20029;-69
2022/05/28 06:30:43;;;;;;;13.83;2.70;;;;;;;-145.18;100.00;60484.78;5026310;28;20056;-70
2022/05/28 06:33:09;;;;;;;10.83;2.03;;;;;;;-145.18;100.00;60484.78;5030951;28;20043;-69
2022/05/28 06:35:34;;;;;;;9.77;2.20;;;;;;;-145.18;100.00;60484.78;5021711;28;20033;-69
2022/05/28 06:38:00;;;;;;;7.80;2.00;;;;;;;-145.18;100.00;60484.78;5023428;28;20033;-69
2022/05/28 06:40:27;;;;;;;14.93;2.20;;;;;;;-145.18;100.00;60484.78;5028116;28;20033;-69
2022/05/28 06:42:55;;;;;;;12.33;2.23;;;;;;;-145.18;100.00;60484.78;5025067;28;20048;-69
2022/05/28 06:45:21;;;;;;;11.17;2.30;;;;;;;-145.18;100.00;60484.78;5026350;28;20045;-69
2022/05/28 06:47:46;;;;;;;11.60;2.23;;;;;;;-145.18;100.00;60484.78;5027302;28;20041;-69
2022/05/28 06:52:58;;;;;;;16.33;2.57;;;;;;;-145.18;100.00;60484.78;5026224;28;20087;-69
2022/05/28 06:55:24;;;;;;;10.47;2.07;;;;;;;-145.18;100.00;60484.78;5034020;28;20025;-69
2022/05/28 06:57:50;;;;;;;9.23;2.13;;;;;;;-145.18;100.00;60484.78;5030393;28;20044;-69
2022/05/28 07:00:16;;;;;;;11.47;2.13;;;;;;;-145.18;100.00;60484.78;5031893;28;20036;-69
2022/05/28 07:02:41;;;;;;;12.83;2.20;;;;;;;-145.18;100.00;60484.78;5029183;28;20037;-69
2022/05/28 07:05:07;;;;;;;13.37;2.33;;;;;;;-145.18;100.00;60484.78;5027382;28;20041;-69
2022/05/28 07:07:32;;;;;;;10.93;1.97;;;;;;;-145.18;100.00;60484.78;5023925;28;20354;-69
2022/05/28 07:09:57;;;;;;;13.17;2.43;;;;;;;-145.18;100.00;60484.78;5031043;28;20040;-69
2022/05/28 07:12:23;;;;;;;10.00;2.00;;;;;;;-145.18;100.00;60484.78;5027006;28;20171;-69
2022/05/28 07:14:48;;;;;;;13.43;2.40;;;;;;;-145.18;100.00;60484.78;5023444;28;20168;-69
2022/05/28 07:17:14;;;;;;;13.10;2.20;;;;;;;-145.18;100.00;60484.78;5022157;28;20393;-70
2022/05/28 07:19:41;;;;;;;14.03;2.27;;;;;;;-145.18;100.00;60484.78;5025474;28;20029;-69
2022/05/28 07:22:07;;;;;;;13.17;2.13;;;;;;;-145.18;100.00;60484.78;5023356;28;20045;-69
2022/05/28 07:24:32;;;;;;;15.00;2.33;;;;;;;-145.18;100.00;60484.78;5021279;28;20709;-69
2022/05/28 07:26:58;;;;;;;14.37;2.40;;;;;;;-145.18;100.00;60484.78;5022963;28;20025;-69
2022/05/28 07:29:23;;;;;;;18.23;3.13;;;;;;;-145.18;100.00;60484.78;5022792;28;20044;-69
2022/05/28 07:31:49;;;;;;;17.53;2.67;;;;;;;-145.18;100.00;60484.78;5026183;28;20033;-69
2022/05/28 07:34:14;;;;;;;15.60;2.60;;;;;;;-145.18;100.00;60484.78;5022110;28;20032;-69
2022/05/28 07:36:41;;;;;;;15.50;2.70;;;;;;;-145.18;100.00;60484.78;5031543;28;20029;-69
2022/05/28 07:39:06;;;;;;;13.90;2.57;;;;;;;-145.18;100.00;60484.78;5023155;28;20037;-69
2022/05/28 07:41:32;;;;;;;13.43;2.23;;;;;;;-145.18;100.00;60484.78;5021319;28;20056;-70
2022/05/28 07:43:58;;;;;;;15.93;3.30;;;;;;;-145.18;100.00;60484.78;5021449;28;20041;-69
2022/05/28 07:46:27;;;;;;;11.40;2.50;;;;;;;-145.18;100.00;60484.78;5027527;28;20549;-69
2022/05/28 07:48:57;;;;;;;14.98;2.67;;;;;;;-145.18;100.00;60484.78;5026598;28;20033;-70
2022/05/28 07:51:23;;;;;;;8.95;1.65;;;;;;;-145.18;100.00;60484.78;5022636;28;20095;-71
2022/05/28 07:53:48;;;;;;;12.98;2.38;;;;;;;-145.18;100.00;60484.78;5021200;28;20052;-71
2022/05/28 07:56:14;;;;;;;12.77;2.30;;;;;;;-145.18;100.00;60484.78;5021923;28;20468;-70
2022/05/28 07:58:41;;;;;;;11.55;2.33;;;;;;;-145.18;100.00;60484.78;5028753;28;20036;-71
2022/05/28 08:01:09;;;;;;;14.15;2.42;;;;;;;-145.18;100.00;60484.78;5031754;28;21004;-70
2022/05/28 08:03:35;;;;;;;13.20;2.03;;;;;;;-145.18;100.00;60484.78;5025842;28;20036;-69
2022/05/28 08:06:01;;;;;;;14.57;2.20;;;;;;;-145.18;100.00;60484.78;5026609;28;20645;-70
2022/05/28 08:08:28;;;;;;;8.38;1.75;;;;;;;-145.18;100.00;60484.78;5034234;28;21685;-70
2022/05/28 08:10:54;;;;;;;12.95;2.25;;;;;;;-145.18;100.00;60484.78;5036315;28;20029;-70
2022/05/28 08:13:22;;;;;;;8.55;1.75;;;;;;;-145.18;100.00;60484.78;5025793;28;20029;-70
2022/05/28 08:15:50;;;;;;;10.90;1.90;;;;;;;-145.18;100.00;60484.78;5025421;28;20108;-70
2022/05/28 08:18:19;;;;;;;9.27;1.85;;;;;;;-145.18;100.00;60484.78;5026405;28;21913;-70
2022/05/28 08:23:31;;;;;;;11.20;2.10;;;;;;;-145.18;100.00;60484.78;5025475;28;20137;-70
2022/05/28 08:25:56;;;;;;;10.15;1.80;;;;;;;-145.18;100.00;60484.78;5038145;28;20025;-69
2022/05/28 08:28:22;;;;;;;15.05;1.90;;;;;;;-145.18;100.00;60484.78;5033981;28;20037;-70
2022/05/28 08:30:48;;;;;;;8.60;1.60;;;;;;;-145.18;100.00;60484.78;5039259;28;20064;-70
2022/05/28 08:33:16;;;;;;;11.55;1.90;;;;;;;-145.18;100.00;60484.78;5033579;28;20436;-71
2022/05/28 08:35:43;;;;;;;13.90;2.00;;;;;;;-145.18;100.00;60484.78;5037443;28;20135;-71
2022/05/28 08:38:11;;;;;;;8.00;1.60;;;;;;;-145.18;100.00;60484.78;5045801;28;20611;-71
2022/05/28 08:40:47;;;;;;;6.30;1.48;;;;;;;-145.18;100.00;60484.78;5044101;28;20036;-72
2022/05/28 08:43:14;;;;;;;10.77;1.60;;;;;;;-145.18;100.00;60484.78;5040629;28;20040;-71
2022/05/28 08:45:41;;;;;;;8.35;1.60;;;;;;;-145.18;100.00;60484.78;5037611;28;20021;-71
2022/05/28 08:48:06;;;;;;;13.38;1.75;;;;;;;-145.18;100.00;60484.78;5038384;28;20461;-70
2022/05/28 08:50:40;;;;;;;10.27;1.60;;;;;;;-145.18;100.00;60484.78;5042115;28;20036;-69
2022/05/28 08:53:15;;;;;;;10.18;1.90;;;;;;;-145.18;100.00;60484.78;5043724;28;20036;-70
2022/05/28 08:55:45;;;;;;;11.50;1.85;;;;;;;-145.18;100.00;60484.78;5042571;28;20032;-70
2022/05/28 08:58:18;;;;;;;12.63;1.95;;;;;;;-145.18;100.00;60484.78;5038856;28;20021;-70
2022/05/28 09:00:56;;;;;;;10.25;2.03;;;;;;;-145.18;100.00;60484.78;5033047;28;20017;-70
2022/05/28 09:03:51;;;;;;;9.70;1.98;;;;;;;-145.18;100.00;60484.78;5038121;28;20091;-70
2022/05/28 09:06:21;;;;;;;11.52;2.30;;;;;;;-145.18;100.00;60484.78;5047164;28;20088;-71
2022/05/28 09:08:53;;;;;;;11.55;1.77;;;;;;;-145.18;100.00;60484.78;5044669;28;20095;-70
2022/05/28 09:11:44;;;;;;;9.77;1.70;;;;;;;;;;5064015;28;20411;-69
2022/05/28 09:14:24;;;;;;;11.73;2.60;;;;;;;;;;5035953;28;20088;-72
2022/05/28 09:16:51;;;;;;;8.02;2.05;;;;;;;;;;5043203;28;20029;-73
2022/05/28 09:19:18;;;;;;;12.85;2.38;;;;;;;;;;5040221;28;20401;-73
2022/05/28 09:21:44;;;;;;;11.07;2.75;;;;;;;;;;5047224;28;20032;-73
2022/05/28 09:24:13;;;;;;;9.35;2.40;;;;;;;;;;5048816;28;20028;-73
2022/05/28 09:26:45;;;;;;;11.02;1.88;;;;;;;;;;5045715;28;20473;-73
2022/05/28 09:29:19;;;;;;;9.57;2.20;;;;;;;;;;5044742;28;20032;-73
2022/05/28 09:31:47;;;;;;;10.65;1.90;;;;;;;;;;5048026;28;20013;-72
2022/05/28 09:34:12;;;;;;;10.10;2.15;;;;;;;;;;5037092;28;20033;-72
2022/05/28 09:36:44;;;;;;;9.00;1.73;;;;;;;;;;5036094;28;20381;-72
2022/05/28 09:39:28;;;;;;;13.25;1.95;;;;;;;;;;5031349;28;20017;-73
2022/05/28 09:41:56;;;;;;;8.32;1.73;;;;;;;;;;5034209;28;20057;-72
2022/05/28 09:44:46;;;;;;;6.80;1.20;;;;;;;;;;5033043;28;20017;-71
2022/05/28 09:47:16;;;;;;;10.68;1.50;;;;;;;;;;5043090;28;20057;-70
2022/05/28 09:49:46;;;;;;;7.95;2.00;;;;;;;;;;5036403;28;20029;-70
2022/05/28 09:52:12;;;;;;;6.57;1.63;;;;;;;;;;5041133;28;20436;-70
2022/05/28 09:54:38;;;;;;;11.70;2.00;;;;;;;;;;5035066;28;20022;-70
2022/05/28 09:57:09;;;;;;;7.80;1.60;;;;;;;;;;5034703;28;20024;-70
2022/05/28 09:59:35;;;;;;;9.10;1.67;;;;;;;;;;5046393;28;20389;-70
2022/05/28 10:02:12;;;;;;;6.53;1.38;;;;;;;;;;5038496;28;20046;-70
2022/05/28 10:04:52;;;;;;;7.22;1.30;;;;;;;;;;5040862;28;20096;-72
2022/05/28 10:07:34;;;;;;;7.50;1.45;;;;;;;;;;5047841;28;20079;-72
2022/05/28 10:10:00;;;;;;;5.22;1.30;;;;;;;;;;5047011;28;20025;-72
2022/05/28 10:12:30;;;;;;;8.20;1.58;;;;;;;;;;5035991;28;20101;-72
2022/05/28 10:14:59;;;;;;;6.80;1.20;;;;;;;;;;5030270;28;20209;-72
2022/05/28 10:17:26;;;;;;;6.35;1.20;;;;;;;;;;5031972;28;20072;-72
2022/05/28 10:19:53;;;;;;;9.50;1.33;;;;;;;;;;5046698;28;20025;-72
2022/05/28 10:22:19;;;;;;;8.65;1.92;;;;;;;;;;5036621;28;20481;-72
2022/05/28 10:24:49;;;;;;;5.43;1.38;;;;;;;;;;5032682;28;20037;-72
2022/05/28 10:27:40;;;;;;;9.40;1.70;;;;;;;;;;5030850;28;20021;-72
2022/05/28 10:30:08;;;;;;;9.70;1.52;;;;;;;;;;5033487;28;20038;-73
2022/05/28 10:32:35;;;;;;;7.30;1.38;;;;;;;;;;5023802;28;20081;-73
2022/05/28 10:35:02;;;;;;;9.80;1.80;;;;;;;;;;5030545;28;20484;-73
2022/05/28 10:37:28;;;;;;;5.85;1.60;;;;;;;;;;5018977;28;20082;-72
2022/05/28 10:40:02;;;;;;;12.60;1.80;;;;;;;;;;5030448;28;20541;-73
2022/05/28 10:42:28;;;;;;;8.50;1.85;;;;;;;;;;5020375;28;20057;-72
2022/05/28 10:44:53;;;;;;;8.48;1.50;;;;;;;;;;5025338;28;20057;-73
2022/05/28 10:47:27;;;;;;;9.85;1.75;;;;;;;;;;5024517;28;20033;-73
2022/05/28 10:50:08;;;;;;;10.30;2.20;;;;;;;;;;5025544;28;20022;-73
2022/05/28 10:52:51;;;;;;;10.55;2.10;;;;;;;;;;5023116;28;20025;-73
2022/05/28 10:55:26;;;;;;;8.65;1.80;;;;;;;;;;5020116;28;20036;-72
2022/05/28 10:58:09;;;;;;;12.35;2.03;;;;;;;;;;5016617;28;20018;-73
2022/05/28 11:00:34;;;;;;;8.82;1.60;;;;;;;;;;5021979;28;20025;-73
2022/05/28 11:03:03;;;;;;;10.38;1.83;;;;;;;;;;5022267;28;20439;-72
2022/05/28 11:05:28;;;;;;;10.02;1.83;;;;;;;;;;5021875;28;20381;-73
2022/05/28 11:08:16;;;;;;;8.18;1.55;;;;;;;;;;5029446;28;20021;-73
2022/05/28 11:10:44;;;;;;;5.82;1.30;;;;;;;;;;5036680;28;20508;-73
2022/05/28 11:13:28;;;;;;;8.23;1.70;;;;;;;;;;5024675;28;20045;-73
2022/05/28 11:16:01;;;;;;;7.85;1.95;;;;;;;;;;5020212;28;20028;-73
2022/05/28 11:18:26;;;;;;;8.15;1.63;;;;;;;;;;5023863;28;20338;-73
2022/05/28 11:20:54;;;;;;;7.53;1.52;;;;;;;;;;5022104;28;20100;-73
2022/05/28 11:23:19;;;;;;;9.20;1.50;;;;;;;;;;5028595;28;20041;-73
2022/05/28 11:25:47;;;;;;;5.95;1.60;;;;;;;;;;5029680;28;20465;-73
2022/05/28 11:28:20;;;;;;;8.05;1.63;;;;;;;;;;5022360;28;20458;-71
2022/05/28 11:30:47;;;;;;;7.82;1.70;;;;;;;;;;5023760;28;20390;-70
2022/05/28 11:33:21;;;;;;;12.27;2.05;;;;;;;;;;5024747;28;20097;-70
2022/05/28 11:35:51;;;;;;;10.60;2.05;;;;;;;;;;5027265;28;20018;-70
2022/05/28 11:38:27;;;;;;;8.05;1.65;;;;;;;;;;5024640;28;20032;-70
2022/05/28 11:41:04;;;;;;;10.18;1.75;;;;;;;;;;5029812;28;20489;-70
2022/05/28 11:43:42;;;;;;;7.88;1.63;;;;;;;;;;5030387;28;20501;-70
2022/05/28 11:46:14;;;;;;;13.05;1.95;;;;;;;;;;5030500;28;20040;-70
2022/05/28 11:51:35;;;;;;;10.63;1.70;;;;;;;;;;5030161;28;20040;-70
2022/05/28 11:54:36;;;;;;;8.32;1.25;;;;;;;;;;5028430;28;20022;-70
2022/05/28 11:57:06;;;;;;;5.95;1.50;;;;;;;;;;5024642;28;20470;-71
2022/05/28 11:59:33;;;;;;;9.48;1.50;;;;;;;;;;5026933;28;20028;-71
2022/05/28 12:02:00;;;;;;;7.68;1.50;;;;;;;;;;5024293;28;20167;-71